Time;durP1;ratioP1;P1;durP2;ratioP2;P2;SDS_P1;SDS_P2;PMS_P1;PMS_P2;Temp;Humidity;BMP_temperature;BMP_pressure;BME280_temperature;BME280_humidity;BME280_pressure;Samples;Min_cycle;Max_cycle;Signal;HPM_P1;HPM_P2
2023/11/20 00:02:21;;;;;;;1.05;0.35;;;;;;;;;;5062488;28;20028;-76
2023/11/20 00:04:47;;;;;;;1.85;0.40;;;;;;;;;;5061124;28;20029;-76
2023/11/20 00:07:13;;;;;;;0.63;0.43;;;;;;;;;;5061057;28;20012;-77
2023/11/20 00:09:42;;;;;;;0.63;0.20;;;;;;;;;;5062873;28;20282;-77
2023/11/20 00:12:08;;;;;;;0.13;0.10;;;;;;;;;;5062912;28;20378;-76
2023/11/20 00:14:37;;;;;;;0.50;0.40;;;;;;;;;;5062351;28;20020;-77
2023/11/20 00:17:03;;;;;;;0.40;0.30;;;;;;;;;;5063123;28;20020;-77
2023/11/20 00:19:31;;;;;;;2.15;0.50;;;;;;;;;;5064767;28;20017;-77
2023/11/20 00:21:57;;;;;;;0.50;0.45;;;;;;;;;;5065471;28;20360;-77
2023/11/20 00:24:23;;;;;;;1.33;0.52;;;;;;;;;;5068347;28;20028;-76
2023/11/20 00:26:49;;;;;;;0.35;0.30;;;;;;;;;;5079881;28;20207;-76
2023/11/20 00:29:16;;;;;;;2.08;0.63;;;;;;;;;;5061703;28;20040;-77
2023/11/20 00:31:42;;;;;;;1.88;0.20;;;;;;;;;;5062415;28;20025;-76
2023/11/20 00:34:08;;;;;;;1.35;0.30;;;;;;;;;;5060915;28;20017;-77
2023/11/20 00:36:35;;;;;;;0.17;0.17;;;;;;;;;;5060634;28;20062;-77
2023/11/20 00:39:04;;;;;;;0.20;0.17;;;;;;;;;;5059744;28;20029;-77
2023/11/20 00:41:35;;;;;;;0.52;0.38;;;;;;;;;;5059616;28;20043;-77
2023/11/20 00:44:06;;;;;;;0.30;0.30;;;;;;;;;;5063704;28;20031;-76
2023/11/20 00:46:32;;;;;;;0.38;0.30;;;;;;;;;;5060589;28;20035;-76
2023/11/20 00:49:01;;;;;;;0.98;0.28;;;;;;;;;;5062517;28;20399;-75
2023/11/20 00:51:29;;;;;;;0.85;0.30;;;;;;;;;;5059520;28;20121;-76
2023/11/20 00:53:55;;;;;;;0.43;0.32;;;;;;;;;;5063167;28;20068;-76
2023/11/20 00:56:21;;;;;;;0.52;0.30;;;;;;;;;;5058085;28;20028;-76
2023/11/20 00:58:47;;;;;;;0.47;0.43;;;;;;;;;;5062577;28;20016;-76
2023/11/20 01:01:14;;;;;;;0.20;0.20;;;;;;;;;;5061388;28;20017;-76
2023/11/20 01:03:40;;;;;;;0.88;0.57;;;;;;;;;;5062829;28;20052;-77
2023/11/20 01:06:08;;;;;;;0.40;0.30;;;;;;;;;;5068981;28;20035;-77
2023/11/20 01:08:34;;;;;;;0.63;0.50;;;;;;;;;;5069518;28;20043;-77
2023/11/20 01:11:00;;;;;;;0.40;0.30;;;;;;;;;;5076989;28;20017;-78
2023/11/20 01:13:27;;;;;;;1.90;0.32;;;;;;;;;;5073902;28;20028;-77
2023/11/20 01:15:53;;;;;;;0.30;0.30;;;;;;;;;;5074876;28;20024;-77
2023/11/20 01:18:19;;;;;;;0.30;0.30;;;;;;;;;;5072555;28;20108;-75
2023/11/20 01:20:45;;;;;;;0.30;0.30;;;;;;;;;;5070733;28;20017;-77
2023/11/20 01:23:12;;;;;;;0.30;0.30;;;;;;;;;;5062309;28;20479;-77
2023/11/20 01:25:38;;;;;;;0.47;0.47;;;;;;;;;;5060406;28;20025;-76
2023/11/20 01:28:04;;;;;;;0.22;0.22;;;;;;;;;;5061561;28;20498;-75
2023/11/20 01:30:30;;;;;;;2.08;0.20;;;;;;;;;;5060071;28;20025;-76
2023/11/20 01:32:56;;;;;;;0.30;0.30;;;;;;;;;;5059598;28;20387;-76
2023/11/20 01:35:23;;;;;;;0.20;0.20;;;;;;;;;;5061229;28;20025;-77
2023/11/20 01:37:49;;;;;;;0.40;0.38;;;;;;;;;;5060161;28;20029;-76
2023/11/20 01:40:16;;;;;;;1.55;0.20;;;;;;;;;;5069855;28;20051;-77
2023/11/20 01:42:42;;;;;;;0.15;0.10;;;;;;;;;;5075830;28;20032;-75
2023/11/20 01:45:08;;;;;;;0.43;0.40;;;;;;;;;;5072598;28;20033;-76
2023/11/20 01:47:36;;;;;;;0.55;0.25;;;;;;;;;;5081275;28;20024;-75
2023/11/20 01:50:03;;;;;;;1.80;0.47;;;;;;;;;;5084338;28;20008;-77
2023/11/20 01:52:30;;;;;;;1.90;1.25;;;;;;;;;;5082707;28;20020;-78
2023/11/20 01:54:56;;;;;;;1.20;0.88;;;;;;;;;;5084751;28;20103;-77
2023/11/20 01:57:22;;;;;;;0.88;0.60;;;;;;;;;;5079689;28;20044;-77
2023/11/20 01:59:48;;;;;;;0.73;0.70;;;;;;;;;;5074985;28;20028;-77
2023/11/20 02:02:14;;;;;;;0.90;0.47;;;;;;;;;;5059937;28;20111;-77
2023/11/20 02:04:42;;;;;;;0.63;0.40;;;;;;;;;;5055127;28;20060;-76
2023/11/20 02:07:08;;;;;;;0.52;0.30;;;;;;;;;;5054840;28;20471;-77
2023/11/20 02:09:35;;;;;;;0.77;0.40;;;;;;;;;;5054795;28;20091;-77
2023/11/20 02:12:01;;;;;;;0.40;0.38;;;;;;;;;;5055177;28;20055;-76
2023/11/20 02:14:28;;;;;;;0.70;0.30;;;;;;;;;;5054896;28;20028;-76
2023/11/20 02:16:54;;;;;;;0.80;0.20;;;;;;;;;;5054544;28;20036;-77
2023/11/20 02:19:20;;;;;;;1.35;0.50;;;;;;;;;;5053076;28;20090;-77
2023/11/20 02:21:46;;;;;;;0.30;0.20;;;;;;;;;;5054798;28;20482;-76
2023/11/20 02:24:12;;;;;;;1.15;0.38;;;;;;;;;;5054442;28;20021;-75
2023/11/20 02:26:44;;;;;;;0.47;0.35;;;;;;;;;;5046718;28;20021;-75
2023/11/20 02:29:24;;;;;;;0.30;0.30;;;;;;;;;;5054367;28;20033;-76
2023/11/20 02:31:50;;;;;;;1.17;0.40;;;;;;;;;;5054677;28;20031;-76
2023/11/20 02:34:16;;;;;;;0.40;0.40;;;;;;;;;;5054169;28;20029;-76
2023/11/20 02:36:42;;;;;;;0.52;0.32;;;;;;;;;;5054314;28;20033;-77
2023/11/20 02:39:09;;;;;;;0.40;0.40;;;;;;;;;;5056962;28;20040;-78
2023/11/20 02:41:38;;;;;;;0.65;0.38;;;;;;;;;;5057064;28;20041;-77
2023/11/20 02:44:05;;;;;;;0.13;0.10;;;;;;;;;;5055665;28;20075;-77
2023/11/20 02:46:31;;;;;;;0.52;0.30;;;;;;;;;;5057134;28;20055;-77
2023/11/20 02:48:57;;;;;;;0.60;0.40;;;;;;;;;;5058002;28;20032;-77
2023/11/20 02:51:24;;;;;;;0.20;0.20;;;;;;;;;;5057322;28;20045;-77
2023/11/20 02:53:50;;;;;;;0.28;0.28;;;;;;;;;;5055518;28;20466;-76
2023/11/20 02:56:16;;;;;;;1.05;0.38;;;;;;;;;;5052815;28;20039;-76
2023/11/20 02:58:43;;;;;;;0.40;0.40;;;;;;;;;;5053983;28;20415;-76
2023/11/20 03:01:09;;;;;;;1.05;0.30;;;;;;;;;;5052544;28;20041;-77
2023/11/20 03:03:36;;;;;;;0.30;0.30;;;;;;;;;;5053667;28;20032;-77
2023/11/20 03:06:02;;;;;;;0.15;0.15;;;;;;;;;;5052128;28;20505;-77
2023/11/20 03:08:28;;;;;;;0.40;0.20;;;;;;;;;;5051999;28;20479;-77
2023/11/20 03:10:54;;;;;;;0.85;0.40;;;;;;;;;;5053348;28;20029;-75
2023/11/20 03:13:23;;;;;;;0.40;0.40;;;;;;;;;;5053012;28;20024;-77
2023/11/20 03:15:50;;;;;;;1.27;0.55;;;;;;;;;;5053226;28;20491;-77
2023/11/20 03:18:16;;;;;;;0.43;0.40;;;;;;;;;;5053598;28;20052;-76
2023/11/20 03:20:42;;;;;;;0.30;0.30;;;;;;;;;;5056599;28;20032;-76
2023/11/20 03:23:10;;;;;;;1.63;0.40;;;;;;;;;;5061618;28;20029;-75
2023/11/20 03:25:36;;;;;;;2.05;0.50;;;;;;;;;;5062089;28;20112;-76
2023/11/20 03:28:03;;;;;;;3.35;0.73;;;;;;;;;;5060852;28;20025;-76
2023/11/20 03:30:32;;;;;;;0.82;0.40;;;;;;;;;;5062365;28;20079;-78
2023/11/20 03:32:58;;;;;;;1.92;0.60;;;;;;;;;;5061474;28;20117;-76
2023/11/20 03:35:24;;;;;;;0.40;0.20;;;;;;;;;;5061403;28;20112;-76
2023/11/20 03:37:50;;;;;;;2.60;0.40;;;;;;;;;;5061805;28;20039;-76
2023/11/20 03:40:16;;;;;;;0.30;0.30;;;;;;;;;;5060725;28;20048;-75
2023/11/20 03:42:42;;;;;;;0.57;0.47;;;;;;;;;;5061593;28;20025;-76
2023/11/20 03:45:09;;;;;;;1.42;0.38;;;;;;;;;;5062732;28;20025;-77
2023/11/20 03:47:35;;;;;;;2.17;0.40;;;;;;;;;;5062484;28;20032;-75
2023/11/20 03:50:01;;;;;;;0.60;0.40;;;;;;;;;;5061762;28;20463;-75
2023/11/20 03:52:27;;;;;;;1.10;0.30;;;;;;;;;;5062904;28;20071;-76
2023/11/20 03:54:53;;;;;;;0.85;0.40;;;;;;;;;;5062941;28;20395;-75
2023/11/20 03:57:19;;;;;;;1.95;0.35;;;;;;;;;;5063355;28;20025;-76
2023/11/20 03:59:45;;;;;;;1.60;0.60;;;;;;;;;;5068977;28;20029;-74
2023/11/20 04:02:11;;;;;;;6.50;0.63;;;;;;;;;;5065829;28;20078;-74
2023/11/20 04:04:37;;;;;;;0.30;0.30;;;;;;;;;;5067521;28;20021;-75
2023/11/20 04:07:03;;;;;;;3.38;0.60;;;;;;;;;;5076831;28;20055;-77
2023/11/20 04:09:29;;;;;;;2.03;0.40;;;;;;;;;;5069170;28;20115;-79
2023/11/20 04:11:55;;;;;;;0.47;0.47;;;;;;;;;;5070431;28;20021;-79
2023/11/20 04:14:21;;;;;;;1.00;0.52;;;;;;;;;;5073961;28;20063;-78
2023/11/20 04:16:47;;;;;;;2.50;0.82;;;;;;;;;;5070059;28;20040;-77
2023/11/20 04:19:14;;;;;;;0.73;0.25;;;;;;;;;;5067402;28;20025;-76
2023/11/20 04:21:41;;;;;;;0.93;0.30;;;;;;;;;;5066262;28;20058;-78
2023/11/20 04:24:07;;;;;;;3.90;0.63;;;;;;;;;;5067964;28;20025;-78
2023/11/20 04:26:33;;;;;;;2.05;0.40;;;;;;;;;;5069572;28;20052;-78
2023/11/20 04:28:59;;;;;;;2.08;0.40;;;;;;;;;;5068823;28;20025;-75
2023/11/20 04:31:29;;;;;;;1.17;0.40;;;;;;;;;;5068833;28;20043;-76
2023/11/20 04:33:55;;;;;;;1.63;0.40;;;;;;;;;;5068923;28;20036;-77
2023/11/20 04:36:21;;;;;;;2.95;0.65;;;;;;;;;;5066031;28;20487;-79
2023/11/20 04:38:47;;;;;;;1.10;0.63;;;;;;;;;;5065191;28;20032;-75
2023/11/20 04:41:13;;;;;;;1.10;0.30;;;;;;;;;;5064178;28;20029;-76
2023/11/20 04:43:39;;;;;;;0.63;0.30;;;;;;;;;;5064095;28;20080;-77
2023/11/20 04:53:59;;;;;;;0.70;0.43;;;;;;;;;;1224061;23;20926;-78
2023/11/20 04:56:28;;;;;;;0.85;0.75;;;;;;;;;;5040132;28;20042;-80
2023/11/20 04:59:00;;;;;;;1.73;0.43;;;;;;;;;;5029651;28;20049;-80
2023/11/20 05:01:43;;;;;;;;;;;;;;;;;;5019954;28;20048;-79
2023/11/20 05:04:38;;;;;;;1.55;0.35;;;;;;;;;;5000473;28;19913;-79
2023/11/20 05:07:24;;;;;;;4.63;0.60;;;;;;;;;;5004080;28;20457;-79
2023/11/20 05:10:11;;;;;;;;;;;;;;;;;;;;;
2023/11/20 05:12:43;;;;;;;2.08;0.50;;;;;;;;;;5013108;28;20102;-79
2023/11/20 05:15:11;;;;;;;1.13;0.50;;;;;;;;;;5010982;28;20122;-80
2023/11/20 05:17:55;;;;;;;1.58;0.40;;;;;;;;;;5015210;28;20048;-80
2023/11/20 05:20:25;;;;;;;2.17;0.60;;;;;;;;;;5024155;28;20060;-80
2023/11/20 05:22:58;;;;;;;1.50;0.57;;;;;;;;;;5012286;28;20026;-79
2023/11/20 05:25:25;;;;;;;2.35;0.55;;;;;;;;;;5022830;28;20030;-81
2023/11/20 05:27:51;;;;;;;0.63;0.35;;;;;;;;;;5028910;28;20018;-80
2023/11/20 05:30:17;;;;;;;2.40;0.32;;;;;;;;;;5031441;28;20064;-78
2023/11/20 05:32:43;;;;;;;1.80;0.50;;;;;;;;;;5016672;28;20094;-80
2023/11/20 05:35:09;;;;;;;0.50;0.38;;;;;;;;;;5009100;28;20329;-79
2023/11/20 05:37:35;;;;;;;0.65;0.40;;;;;;;;;;5009019;28;20018;-80
2023/11/20 05:40:01;;;;;;;0.50;0.50;;;;;;;;;;5008812;28;20093;-79
2023/11/20 05:42:27;;;;;;;2.40;1.25;;;;;;;;;;5009213;28;20042;-80
2023/11/20 05:44:53;;;;;;;0.75;0.30;;;;;;;;;;5014413;28;20030;-81
2023/11/20 05:47:19;;;;;;;1.20;0.60;;;;;;;;;;5015351;28;20103;-81
2023/11/20 05:49:46;;;;;;;3.33;0.63;;;;;;;;;;5004518;28;20034;-78
2023/11/20 05:52:12;;;;;;;2.03;0.60;;;;;;;;;;5005654;28;20046;-79
2023/11/20 05:54:38;;;;;;;0.60;0.32;;;;;;;;;;5005344;28;20659;-80
2023/11/20 05:57:04;;;;;;;1.42;0.50;;;;;;;;;;5006816;28;20316;-78
2023/11/20 05:59:30;;;;;;;1.40;0.52;;;;;;;;;;5008022;28;20018;-77
2023/11/20 06:01:56;;;;;;;0.95;0.40;;;;;;;;;;5008714;28;20026;-78
2023/11/20 06:04:22;;;;;;;2.97;0.57;;;;;;;;;;5009358;28;20094;-79
2023/11/20 06:06:48;;;;;;;1.48;0.70;;;;;;;;;;5004881;28;20042;-78
2023/11/20 06:09:15;;;;;;;3.38;0.88;;;;;;;;;;5004774;28;20034;-78
2023/11/20 06:11:47;;;;;;;1.35;0.73;;;;;;;;;;5004297;28;20453;-79
2023/11/20 06:14:13;;;;;;;0.40;0.40;;;;;;;;;;5008196;28;20026;-79
2023/11/20 06:16:40;;;;;;;0.93;0.40;;;;;;;;;;5002966;28;20086;-79
2023/11/20 06:19:07;;;;;;;4.03;0.65;;;;;;;;;;5007005;28;20057;-78
2023/11/20 06:21:33;;;;;;;1.33;0.60;;;;;;;;;;5006686;28;20369;-79
2023/11/20 06:24:00;;;;;;;1.95;0.50;;;;;;;;;;5007213;28;20026;-80
2023/11/20 06:26:26;;;;;;;0.30;0.30;;;;;;;;;;5004816;28;20026;-79
2023/11/20 06:28:52;;;;;;;1.05;0.40;;;;;;;;;;5006131;28;20116;-79
2023/11/20 06:31:18;;;;;;;1.10;0.63;;;;;;;;;;5003467;28;20053;-78
2023/11/20 06:33:44;;;;;;;0.40;0.40;;;;;;;;;;5007380;28;20452;-79
2023/11/20 06:36:11;;;;;;;5.22;0.50;;;;;;;;;;5004657;28;20026;-78
2023/11/20 06:38:37;;;;;;;2.10;0.60;;;;;;;;;;5003955;28;20054;-79
2023/11/20 06:41:03;;;;;;;0.93;0.55;;;;;;;;;;5011602;28;20113;-78
2023/11/20 06:43:30;;;;;;;3.25;0.70;;;;;;;;;;5005924;28;20172;-78
2023/11/20 06:45:56;;;;;;;2.35;0.60;;;;;;;;;;5004052;28;20034;-78
2023/11/20 06:48:22;;;;;;;2.10;0.43;;;;;;;;;;5006202;28;20022;-78
2023/11/20 06:50:48;;;;;;;2.38;0.63;;;;;;;;;;5005432;28;20018;-78
2023/11/20 06:53:14;;;;;;;1.65;0.43;;;;;;;;;;5005057;28;20037;-79
2023/11/20 06:55:42;;;;;;;3.95;0.75;;;;;;;;;;5005398;28;20034;-78
2023/11/20 06:58:10;;;;;;;2.50;0.80;;;;;;;;;;5008883;28;20054;-80
2023/11/20 07:00:37;;;;;;;2.28;0.80;;;;;;;;;;5012644;28;20400;-79
2023/11/20 07:03:05;;;;;;;4.97;0.52;;;;;;;;;;5004045;28;20507;-78
2023/11/20 07:05:32;;;;;;;0.80;0.50;;;;;;;;;;5002381;28;20046;-80
2023/11/20 07:08:05;;;;;;;1.33;0.35;;;;;;;;;;5006632;28;20089;-78
2023/11/20 07:10:31;;;;;;;1.60;0.75;;;;;;;;;;5005179;28;20045;-79
2023/11/20 07:12:58;;;;;;;1.48;0.50;;;;;;;;;;5005178;28;20022;-79
2023/11/20 07:15:25;;;;;;;0.93;0.50;;;;;;;;;;5006859;28;20022;-79
2023/11/20 07:17:53;;;;;;;1.30;0.47;;;;;;;;;;4999955;28;20109;-79
2023/11/20 07:20:20;;;;;;;0.80;0.55;;;;;;;;;;5000165;28;20469;-79
2023/11/20 07:22:46;;;;;;;3.42;0.93;;;;;;;;;;4993744;28;20172;-80
2023/11/20 07:25:13;;;;;;;2.97;0.68;;;;;;;;;;5001473;28;20033;-79
2023/11/20 07:27:39;;;;;;;2.00;0.40;;;;;;;;;;5003497;28;20069;-78
2023/11/20 07:30:07;;;;;;;1.95;0.70;;;;;;;;;;5002333;28;20029;-79
2023/11/20 07:32:35;;;;;;;2.65;0.80;;;;;;;;;;5003400;28;20014;-78
2023/11/20 07:35:03;;;;;;;0.95;0.45;;;;;;;;;;4998560;28;20073;-78
2023/11/20 07:37:29;;;;;;;0.77;0.45;;;;;;;;;;5008433;28;20038;-79
2023/11/20 07:39:55;;;;;;;1.08;0.45;;;;;;;;;;5002856;28;20049;-79
2023/11/20 07:42:22;;;;;;;0.55;0.50;;;;;;;;;;5001913;28;20033;-78
2023/11/20 07:44:48;;;;;;;0.93;0.50;;;;;;;;;;5003712;28;20218;-79
2023/11/20 07:47:14;;;;;;;1.75;0.70;;;;;;;;;;5006650;28;20031;-80
2023/11/20 07:49:43;;;;;;;2.50;0.60;;;;;;;;;;5006098;28;20026;-80
2023/11/20 07:52:09;;;;;;;0.73;0.52;;;;;;;;;;5019219;28;20023;-79
2023/11/20 07:54:35;;;;;;;1.85;0.50;;;;;;;;;;5004522;28;20473;-79
2023/11/20 07:57:03;;;;;;;1.52;0.73;;;;;;;;;;5007146;28;20499;-80
2023/11/20 07:59:29;;;;;;;1.88;1.02;;;;;;;;;;5005763;28;20026;-80
2023/11/20 08:01:56;;;;;;;2.20;0.70;;;;;;;;;;5000957;28;20026;-79
2023/11/20 08:04:22;;;;;;;1.65;0.80;;;;;;;;;;5006187;28;20030;-80
2023/11/20 08:06:48;;;;;;;2.58;1.23;;;;;;;;;;5007451;28;20119;-79
2023/11/20 08:09:15;;;;;;;1.30;0.68;;;;;;;;;;5005848;28;20094;-78
2023/11/20 08:11:41;;;;;;;1.25;0.70;;;;;;;;;;5005803;28;20083;-79
2023/11/20 08:14:08;;;;;;;2.20;0.63;;;;;;;;;;5023236;28;20044;-80
2023/11/20 08:16:34;;;;;;;3.15;0.80;;;;;;;;;;5007066;28;20034;-79
2023/11/20 08:19:02;;;;;;;1.60;0.65;;;;;;;;;;5005427;28;20042;-79
2023/11/20 08:21:28;;;;;;;1.58;0.80;;;;;;;;;;5004414;28;20022;-80
2023/11/20 08:23:55;;;;;;;3.83;0.88;;;;;;;;;;5008833;28;20030;-79
2023/11/20 08:26:21;;;;;;;2.30;0.68;;;;;;;;;;5003420;28;20049;-80
2023/11/20 08:28:47;;;;;;;0.43;0.43;;;;;;;;;;5005709;28;20030;-78
2023/11/20 08:31:14;;;;;;;3.45;1.30;;;;;;;;;;5003699;28;20058;-80
2023/11/20 08:33:40;;;;;;;3.40;0.90;;;;;;;;;;5005130;28;20042;-79
2023/11/20 08:36:08;;;;;;;2.95;0.80;;;;;;;;;;5003373;28;20022;-78
2023/11/20 08:38:34;;;;;;;2.47;0.93;;;;;;;;;;5002722;28;20038;-78
2023/11/20 08:41:00;;;;;;;3.88;0.90;;;;;;;;;;5002529;28;20022;-80
2023/11/20 08:43:27;;;;;;;3.63;0.98;;;;;;;;;;5007016;28;20440;-79
2023/11/20 08:45:53;;;;;;;2.35;1.02;;;;;;;;;;5008184;28;20018;-79
2023/11/20 08:48:20;;;;;;;5.25;1.15;;;;;;;;;;5006949;28;20037;-78
2023/11/20 08:50:46;;;;;;;3.47;1.38;;;;;;;;;;5019996;28;20037;-78
2023/11/20 08:53:12;;;;;;;5.22;1.00;;;;;;;;;;5023504;28;20053;-79
2023/11/20 08:55:38;;;;;;;4.55;0.93;;;;;;;;;;5014367;28;20145;-77
2023/11/20 08:58:04;;;;;;;2.22;0.70;;;;;;;;;;5009737;28;21029;-77
2023/11/20 09:00:30;;;;;;;3.22;0.98;;;;;;;;;;5005515;28;20536;-79
2023/11/20 09:02:56;;;;;;;4.55;0.88;;;;;;;;;;5004952;28;20125;-78
2023/11/20 09:05:22;;;;;;;3.88;1.00;;;;;;;;;;5018132;28;20090;-76
2023/11/20 09:07:49;;;;;;;2.10;0.85;;;;;;;;;;5008742;28;20086;-79
2023/11/20 09:10:15;;;;;;;5.05;1.50;;;;;;;;;;5011183;28;20018;-77
2023/11/20 09:12:44;;;;;;;1.95;0.85;;;;;;;;;;5016418;28;20122;-77
2023/11/20 09:15:11;;;;;;;2.78;0.93;;;;;;;;;;5013773;28;20034;-79
2023/11/20 09:17:37;;;;;;;2.75;1.05;;;;;;;;;;5013416;28;20035;-78
2023/11/20 09:20:04;;;;;;;4.90;0.88;;;;;;;;;;5013377;28;20023;-80
2023/11/20 09:22:30;;;;;;;1.70;0.80;;;;;;;;;;5014675;28;20030;-80
2023/11/20 09:24:56;;;;;;;2.67;0.70;;;;;;;;;;5006381;28;20023;-78
2023/11/20 09:27:22;;;;;;;5.25;1.08;;;;;;;;;;5012831;28;20101;-80
2023/11/20 09:29:49;;;;;;;2.45;0.73;;;;;;;;;;5009257;28;20046;-79
2023/11/20 09:32:15;;;;;;;3.50;0.90;;;;;;;;;;5009215;28;20042;-79
2023/11/20 09:34:43;;;;;;;1.63;0.90;;;;;;;;;;5003255;28;20037;-78
2023/11/20 09:37:09;;;;;;;3.50;1.08;;;;;;;;;;5003489;28;20046;-80
2023/11/20 09:39:41;;;;;;;1.08;0.68;;;;;;;;;;5001660;28;20022;-78
2023/11/20 09:42:08;;;;;;;5.22;1.08;;;;;;;;;;5001551;28;20060;-79
2023/11/20 09:44:38;;;;;;;1.75;0.60;;;;;;;;;;5016999;28;20026;-80
2023/11/20 09:47:04;;;;;;;4.38;1.00;;;;;;;;;;5009201;28;20026;-79
2023/11/20 09:49:33;;;;;;;6.78;1.13;;;;;;;;;;5007276;28;20113;-79
2023/11/20 09:51:59;;;;;;;2.35;0.68;;;;;;;;;;5005995;28;20018;-79
2023/11/20 09:54:26;;;;;;;4.32;1.02;;;;;;;;;;5002137;28;20209;-79
2023/11/20 09:56:52;;;;;;;3.75;0.95;;;;;;;;;;5000234;28;20019;-78
2023/11/20 09:59:19;;;;;;;3.00;0.80;;;;;;;;;;5001159;28;20034;-80
2023/11/20 10:01:46;;;;;;;1.65;0.90;;;;;;;;;;5004479;28;20030;-78
2023/11/20 10:04:16;;;;;;;3.33;0.77;;;;;;;;;;5004115;28;20026;-79
2023/11/20 10:06:44;;;;;;;2.35;1.00;;;;;;;;;;5005532;28;20029;-78
2023/11/20 10:09:12;;;;;;;1.38;0.80;;;;;;;;;;5004329;28;20022;-79
2023/11/20 10:11:40;;;;;;;5.18;1.20;;;;;;;;;;5009508;28;20030;-80
2023/11/20 10:14:09;;;;;;;3.35;1.05;;;;;;;;;;5019380;28;20029;-79
2023/11/20 10:16:37;;;;;;;2.08;0.80;;;;;;;;;;5010191;28;20018;-78
2023/11/20 10:19:04;;;;;;;7.13;1.30;;;;;;;;;;5015068;28;20152;-79
2023/11/20 10:21:33;;;;;;;3.97;1.52;;;;;;;;;;5011800;28;20037;-82
2023/11/20 10:24:01;;;;;;;2.35;1.02;;;;;;;;;;5010645;28;20026;-81
2023/11/20 10:26:27;;;;;;;4.72;1.20;;;;;;;;;;5010364;28;20480;-80
2023/11/20 10:28:58;;;;;;;4.28;0.93;;;;;;;;;;5011909;28;20042;-79
2023/11/20 10:31:24;;;;;;;2.90;0.93;;;;;;;;;;5009942;28;20049;-79
2023/11/20 10:34:09;;;;;;;2.67;1.20;;;;;;;;;;5005282;28;20049;-79
2023/11/20 10:36:36;;;;;;;2.47;0.90;;;;;;;;;;5004496;28;20172;-79
2023/11/20 10:39:02;;;;;;;2.78;0.95;;;;;;;;;;5005131;28;20024;-79
2023/11/20 10:41:29;;;;;;;4.90;1.05;;;;;;;;;;5001681;28;20026;-79
2023/11/20 10:43:55;;;;;;;2.45;0.98;;;;;;;;;;5011475;28;20018;-77
2023/11/20 10:46:23;;;;;;;3.45;1.05;;;;;;;;;;5009428;28;20492;-82
2023/11/20 10:48:50;;;;;;;3.67;0.90;;;;;;;;;;5006371;28;20074;-79
2023/11/20 10:51:19;;;;;;;4.07;1.23;;;;;;;;;;5004394;28;20347;-78
2023/11/20 10:53:52;;;;;;;4.80;1.00;;;;;;;;;;5003060;28;20085;-80
2023/11/20 10:56:18;;;;;;;3.10;1.10;;;;;;;;;;5004676;28;20034;-80
2023/11/20 10:58:45;;;;;;;2.25;1.08;;;;;;;;;;5002641;28;20026;-79
2023/11/20 11:01:13;;;;;;;2.92;1.00;;;;;;;;;;5000588;28;20030;-79
2023/11/20 11:03:40;;;;;;;2.38;1.02;;;;;;;;;;5006734;28;20026;-81
2023/11/20 11:06:09;;;;;;;3.28;1.20;;;;;;;;;;5008193;28;20042;-81
2023/11/20 11:08:37;;;;;;;4.15;1.42;;;;;;;;;;5007272;28;20057;-79
2023/11/20 11:11:04;;;;;;;4.28;0.90;;;;;;;;;;5005319;28;20097;-80
2023/11/20 11:13:35;;;;;;;4.35;1.40;;;;;;;;;;5007514;28;20088;-81
2023/11/20 11:16:05;;;;;;;3.28;1.05;;;;;;;;;;5014502;28;20026;-81
2023/11/20 11:18:32;;;;;;;2.60;1.13;;;;;;;;;;5009069;28;20025;-80
2023/11/20 11:20:58;;;;;;;7.13;1.67;;;;;;;;;;5007886;28;20061;-79
2023/11/20 11:23:29;;;;;;;3.63;1.73;;;;;;;;;;5006153;28;20030;-80
2023/11/20 11:26:03;;;;;;;2.67;1.00;;;;;;;;;;5023030;28;20045;-80
2023/11/20 11:28:29;;;;;;;3.65;1.30;;;;;;;;;;5008529;28;20031;-81
2023/11/20 11:30:56;;;;;;;4.68;0.98;;;;;;;;;;5007037;28;20053;-81
2023/11/20 11:33:40;;;;;;;3.35;1.00;;;;;;;;;;5009710;28;20041;-79
2023/11/20 11:36:08;;;;;;;3.85;1.15;;;;;;;;;;5009673;28;20023;-80
2023/11/20 11:38:41;;;;;;;5.80;1.45;;;;;;;;;;5009286;28;20123;-80
2023/11/20 11:41:09;;;;;;;2.17;0.98;;;;;;;;;;5011525;28;20027;-80
2023/11/20 11:43:38;;;;;;;2.75;0.73;;;;;;;;;;5013337;28;20020;-78
2023/11/20 11:46:04;;;;;;;7.25;1.40;;;;;;;;;;5014901;28;20026;-78
2023/11/20 11:48:37;;;;;;;4.25;1.20;;;;;;;;;;5014307;28;20010;-78
2023/11/20 11:51:04;;;;;;;2.97;1.10;;;;;;;;;;5014725;28;20078;-77
2023/11/20 11:53:30;;;;;;;2.90;1.00;;;;;;;;;;5014639;28;20159;-79
2023/11/20 11:56:03;;;;;;;5.10;1.08;;;;;;;;;;5013797;28;20281;-77
2023/11/20 11:58:36;;;;;;;3.47;0.90;;;;;;;;;;5014137;28;20023;-77
2023/11/20 12:01:15;;;;;;;4.13;0.95;;;;;;;;;;5014328;28;20081;-77
2023/11/20 12:03:41;;;;;;;4.82;1.20;;;;;;;;;;5010905;28;20142;-79
2023/11/20 12:06:12;;;;;;;3.40;1.10;;;;;;;;;;5008690;28;20126;-80
2023/11/20 12:08:38;;;;;;;6.05;1.30;;;;;;;;;;5009764;28;20158;-81
2023/11/20 12:11:04;;;;;;;5.20;1.10;;;;;;;;;;5008232;28;20034;-80
2023/11/20 12:13:31;;;;;;;3.47;0.77;;;;;;;;;;5008863;28;20062;-82
2023/11/20 12:16:07;;;;;;;2.50;0.55;;;;;;;;;;5006744;28;20121;-80
2023/11/20 12:18:35;;;;;;;6.63;1.17;;;;;;;;;;5013879;28;20019;-79
2023/11/20 12:21:09;;;;;;;2.75;1.23;;;;;;;;;;5015293;28;20010;-80
2023/11/20 12:23:36;;;;;;;6.28;1.40;;;;;;;;;;5006964;28;20023;-79
2023/11/20 12:26:03;;;;;;;4.00;1.20;;;;;;;;;;5008450;28;20061;-79
2023/11/20 12:28:33;;;;;;;4.18;1.50;;;;;;;;;;5009015;28;20033;-82
2023/11/20 12:31:20;;;;;;;2.08;0.88;;;;;;;;;;5020801;28;20022;-82
2023/11/20 12:33:47;;;;;;;2.35;0.88;;;;;;;;;;5009749;28;20046;-80
2023/11/20 12:36:14;;;;;;;2.60;0.82;;;;;;;;;;5008854;28;20066;-81
2023/11/20 12:38:41;;;;;;;3.42;1.08;;;;;;;;;;5007840;28;20035;-80
2023/11/20 12:41:08;;;;;;;2.17;0.80;;;;;;;;;;5009029;28;20030;-82
2023/11/20 12:43:37;;;;;;;4.00;1.45;;;;;;;;;;5016938;28;20022;-82
2023/11/20 12:46:05;;;;;;;3.50;0.88;;;;;;;;;;5020550;28;20091;-81
2023/11/20 12:48:31;;;;;;;7.43;1.52;;;;;;;;;;5008868;28;20023;-81
2023/11/20 12:50:57;;;;;;;3.58;1.20;;;;;;;;;;5011173;28;20034;-79
2023/11/20 12:53:23;;;;;;;3.97;0.90;;;;;;;;;;5015019;28;20078;-80
2023/11/20 12:55:51;;;;;;;3.63;1.10;;;;;;;;;;5020748;28;20065;-78
2023/11/20 12:58:17;;;;;;;3.72;1.10;;;;;;;;;;5014521;28;20003;-78
2023/11/20 13:00:44;;;;;;;4.07;1.10;;;;;;;;;;5015837;28;20053;-81
2023/11/20 13:03:18;;;;;;;5.30;1.92;;;;;;;;;;5020586;28;20026;-81
2023/11/20 13:05:46;;;;;;;4.10;1.33;;;;;;;;;;5010269;28;20041;-80
2023/11/20 13:08:14;;;;;;;3.17;0.80;;;;;;;;;;5011285;28;20394;-80
2023/11/20 13:10:40;;;;;;;4.25;1.10;;;;;;;;;;5009883;28;20019;-79
2023/11/20 13:13:07;;;;;;;3.38;1.23;;;;;;;;;;5015077;28;20068;-82
2023/11/20 13:15:37;;;;;;;2.85;0.95;;;;;;;;;;5028432;28;20081;-80
2023/11/20 13:18:05;;;;;;;2.17;0.90;;;;;;;;;;5013478;28;20033;-79
2023/11/20 13:20:40;;;;;;;5.15;1.73;;;;;;;;;;5012731;28;20066;-77
2023/11/20 13:23:28;;;;;;;1.63;0.88;;;;;;;;;;5013082;28;20022;-80
2023/11/20 13:26:17;;;;;;;4.63;1.00;;;;;;;;;;5011007;28;20266;-82
2023/11/20 13:28:43;;;;;;;1.58;0.70;;;;;;;;;;5012120;28;20049;-80
2023/11/20 13:31:10;;;;;;;2.28;1.02;;;;;;;;;;5010605;28;20019;-79
2023/11/20 13:33:37;;;;;;;3.30;0.75;;;;;;;;;;5006776;28;20015;-81
2023/11/20 13:36:05;;;;;;;3.40;1.02;;;;;;;;;;5013212;28;20106;-80
2023/11/20 13:38:31;;;;;;;2.25;0.98;;;;;;;;;;5021430;28;20030;-79
2023/11/20 13:40:58;;;;;;;8.20;1.48;;;;;;;;;;5014007;28;20026;-80
2023/11/20 13:43:26;;;;;;;5.30;1.20;;;;;;;;;;5017073;28;20022;-80
2023/11/20 13:45:54;;;;;;;6.15;0.98;;;;;;;;;;5024843;28;20072;-79
2023/11/20 13:48:21;;;;;;;2.13;1.15;;;;;;;;;;5016539;28;20038;-80
2023/11/20 13:50:47;;;;;;;1.58;0.70;;;;;;;;;;5023619;28;20069;-82
2023/11/20 13:53:13;;;;;;;5.85;1.52;;;;;;;;;;5017115;28;20018;-80
2023/11/20 13:55:44;;;;;;;4.00;1.88;;;;;;;;;;5025138;28;20046;-81
2023/11/20 13:58:11;;;;;;;4.15;1.30;;;;;;;;;;5016155;28;20033;-81
2023/11/20 14:00:38;;;;;;;5.03;1.95;;;;;;;;;;5016745;28;20015;-78
2023/11/20 14:03:04;;;;;;;5.28;1.20;;;;;;;;;;5026222;28;20030;-80
2023/11/20 14:05:30;;;;;;;4.20;1.30;;;;;;;;;;5017727;28;20060;-79
2023/11/20 14:07:56;;;;;;;2.28;1.13;;;;;;;;;;5016807;28;20026;-80
2023/11/20 14:10:22;;;;;;;1.92;0.90;;;;;;;;;;5017572;28;20034;-78
2023/11/20 14:12:49;;;;;;;4.38;1.45;;;;;;;;;;5020312;28;20101;-79
2023/11/20 14:15:15;;;;;;;5.32;1.17;;;;;;;;;;5034757;28;20046;-79
2023/11/20 14:17:42;;;;;;;5.28;1.25;;;;;;;;;;5026382;28;20026;-79
2023/11/20 14:20:12;;;;;;;2.72;1.25;;;;;;;;;;5017507;28;20097;-79
2023/11/20 14:22:41;;;;;;;5.47;1.77;;;;;;;;;;5014914;28;20045;-79
2023/11/20 14:25:09;;;;;;;3.90;1.00;;;;;;;;;;5015044;28;20042;-79
2023/11/20 14:27:35;;;;;;;3.38;1.02;;;;;;;;;;5016734;28;20015;-77
2023/11/20 14:30:04;;;;;;;3.67;1.10;;;;;;;;;;5024727;28;20078;-80
2023/11/20 14:32:30;;;;;;;8.00;1.60;;;;;;;;;;5031908;28;20037;-80
2023/11/20 14:34:56;;;;;;;6.20;1.20;;;;;;;;;;5015134;28;20022;-79
2023/11/20 14:37:23;;;;;;;4.38;1.00;;;;;;;;;;5015753;28;20057;-80
2023/11/20 14:39:50;;;;;;;4.18;1.00;;;;;;;;;;5016325;28;20034;-80
2023/11/20 14:42:16;;;;;;;7.70;1.00;;;;;;;;;;5015249;28;20006;-78
2023/11/20 14:44:42;;;;;;;3.38;1.23;;;;;;;;;;5023334;28;20066;-79
2023/11/20 14:47:08;;;;;;;2.42;0.73;;;;;;;;;;5015747;28;20030;-79
2023/11/20 14:49:35;;;;;;;4.85;0.90;;;;;;;;;;5016792;28;20118;-76
2023/11/20 14:52:01;;;;;;;3.80;0.98;;;;;;;;;;5016451;28;20010;-79
2023/11/20 14:54:27;;;;;;;6.47;1.55;;;;;;;;;;5015881;28;20089;-81